sensor_id;sensor_type;location;lat;lon;timestamp;temperature;humidity
15749;DHT22;7976;52.526;13.326;2022-07-23T00:01:30;19.50;99.90
15749;DHT22;7976;52.526;13.326;2022-07-23T00:03:57;19.50;99.90
15749;DHT22;7976;52.526;13.326;2022-07-23T00:06:25;19.50;99.90
15749;DHT22;7976;52.526;13.326;2022-07-23T00:08:53;19.50;99.90
15749;DHT22;7976;52.526;13.326;2022-07-23T00:11:20;19.50;99.90
15749;DHT22;7976;52.526;13.326;2022-07-23T00:13:47;19.50;99.90
15749;DHT22;7976;52.526;13.326;2022-07-23T00:16:15;19.50;99.90
15749;DHT22;7976;52.526;13.326;2022-07-23T00:18:41;19.50;99.90
15749;DHT22;7976;52.526;13.326;2022-07-23T00:21:08;19.50;99.90
15749;DHT22;7976;52.526;13.326;2022-07-23T00:23:35;19.50;99.90
15749;DHT22;7976;52.526;13.326;2022-07-23T00:26:04;19.50;99.90
15749;DHT22;7976;52.526;13.326;2022-07-23T00:28:33;19.50;99.90
15749;DHT22;7976;52.526;13.326;2022-07-23T00:31:00;19.50;99.90
15749;DHT22;7976;52.526;13.326;2022-07-23T00:33:27;19.50;99.90
15749;DHT22;7976;52.526;13.326;2022-07-23T00:35:53;19.40;99.90
15749;DHT22;7976;52.526;13.326;2022-07-23T00:38:20;19.40;99.90
15749;DHT22;7976;52.526;13.326;2022-07-23T00:40:47;19.40;99.90
15749;DHT22;7976;52.526;13.326;2022-07-23T00:43:15;19.40;99.90
15749;DHT22;7976;52.526;13.326;2022-07-23T00:45:42;19.40;99.90
15749;DHT22;7976;52.526;13.326;2022-07-23T00:48:09;19.30;99.90
15749;DHT22;7976;52.526;13.326;2022-07-23T00:50:36;19.30;99.90
15749;DHT22;7976;52.526;13.326;2022-07-23T00:53:03;19.30;99.90
15749;DHT22;7976;52.526;13.326;2022-07-23T00:55:31;19.20;99.90
15749;DHT22;7976;52.526;13.326;2022-07-23T00:57:59;19.20;99.90
15749;DHT22;7976;52.526;13.326;2022-07-23T01:00:28;19.20;99.90
15749;DHT22;7976;52.526;13.326;2022-07-23T01:02:56;19.10;99.90
15749;DHT22;7976;52.526;13.326;2022-07-23T01:05:23;19.10;99.90
15749;DHT22;7976;52.526;13.326;2022-07-23T01:07:50;19.00;99.90
15749;DHT22;7976;52.526;13.326;2022-07-23T01:10:18;19.00;99.90
15749;DHT22;7976;52.526;13.326;2022-07-23T01:13:01;18.90;99.90
15749;DHT22;7976;52.526;13.326;2022-07-23T01:15:32;18.90;99.90
15749;DHT22;7976;52.526;13.326;2022-07-23T01:18:00;18.90;99.90
15749;DHT22;7976;52.526;13.326;2022-07-23T01:20:27;18.80;99.90
15749;DHT22;7976;52.526;13.326;2022-07-23T01:22:56;18.80;99.90
15749;DHT22;7976;52.526;13.326;2022-07-23T01:25:24;18.80;99.90
15749;DHT22;7976;52.526;13.326;2022-07-23T01:28:01;18.70;99.90
15749;DHT22;7976;52.526;13.326;2022-07-23T01:30:28;18.70;99.90
15749;DHT22;7976;52.526;13.326;2022-07-23T01:32:57;18.70;99.90
15749;DHT22;7976;52.526;13.326;2022-07-23T01:35:24;18.70;99.90
15749;DHT22;7976;52.526;13.326;2022-07-23T01:37:53;18.60;99.90
15749;DHT22;7976;52.526;13.326;2022-07-23T01:40:22;18.60;99.90
15749;DHT22;7976;52.526;13.326;2022-07-23T01:42:50;18.60;99.90
15749;DHT22;7976;52.526;13.326;2022-07-23T01:45:18;18.50;99.90
15749;DHT22;7976;52.526;13.326;2022-07-23T01:47:48;18.50;99.90
15749;DHT22;7976;52.526;13.326;2022-07-23T01:50:16;18.50;99.90
15749;DHT22;7976;52.526;13.326;2022-07-23T01:53:03;18.50;99.90
15749;DHT22;7976;52.526;13.326;2022-07-23T01:55:31;18.50;99.90
15749;DHT22;7976;52.526;13.326;2022-07-23T01:57:58;18.50;99.90
15749;DHT22;7976;52.526;13.326;2022-07-23T02:00:28;18.40;99.90
15749;DHT22;7976;52.526;13.326;2022-07-23T02:02:55;18.40;99.90
15749;DHT22;7976;52.526;13.326;2022-07-23T02:05:23;18.40;99.90
15749;DHT22;7976;52.526;13.326;2022-07-23T02:07:50;18.40;99.90
15749;DHT22;7976;52.526;13.326;2022-07-23T02:10:17;18.40;99.90
15749;DHT22;7976;52.526;13.326;2022-07-23T02:12:46;18.30;99.90
15749;DHT22;7976;52.526;13.326;2022-07-23T02:15:12;18.30;99.90
15749;DHT22;7976;52.526;13.326;2022-07-23T02:17:39;18.30;99.90
15749;DHT22;7976;52.526;13.326;2022-07-23T02:20:08;18.20;99.90
15749;DHT22;7976;52.526;13.326;2022-07-23T02:22:37;18.20;99.90
15749;DHT22;7976;52.526;13.326;2022-07-23T02:25:05;18.20;99.90
15749;DHT22;7976;52.526;13.326;2022-07-23T02:27:35;18.20;99.90
15749;DHT22;7976;52.526;13.326;2022-07-23T02:30:07;18.20;99.90
15749;DHT22;7976;52.526;13.326;2022-07-23T02:32:34;18.20;99.90
15749;DHT22;7976;52.526;13.326;2022-07-23T02:35:02;18.20;99.90
15749;DHT22;7976;52.526;13.326;2022-07-23T02:37:30;18.10;99.90
15749;DHT22;7976;52.526;13.326;2022-07-23T02:39:57;18.10;99.90
15749;DHT22;7976;52.526;13.326;2022-07-23T02:42:24;18.10;99.90
15749;DHT22;7976;52.526;13.326;2022-07-23T02:44:51;18.10;99.90
15749;DHT22;7976;52.526;13.326;2022-07-23T02:47:19;18.00;99.90
15749;DHT22;7976;52.526;13.326;2022-07-23T02:49:46;18.00;99.90
15749;DHT22;7976;52.526;13.326;2022-07-23T02:52:13;18.00;99.90
15749;DHT22;7976;52.526;13.326;2022-07-23T02:54:41;18.00;99.90
15749;DHT22;7976;52.526;13.326;2022-07-23T02:57:10;18.00;99.90
15749;DHT22;7976;52.526;13.326;2022-07-23T02:59:37;18.00;99.90
15749;DHT22;7976;52.526;13.326;2022-07-23T03:02:04;18.10;99.90
15749;DHT22;7976;52.526;13.326;2022-07-23T03:04:32;18.10;99.90
15749;DHT22;7976;52.526;13.326;2022-07-23T03:06:59;18.10;99.90
15749;DHT22;7976;52.526;13.326;2022-07-23T03:09:25;18.00;99.90
15749;DHT22;7976;52.526;13.326;2022-07-23T03:11:52;18.10;99.90
15749;DHT22;7976;52.526;13.326;2022-07-23T03:14:19;18.00;99.90
15749;DHT22;7976;52.526;13.326;2022-07-23T03:16:46;18.10;99.90
15749;DHT22;7976;52.526;13.326;2022-07-23T03:19:15;18.10;99.90
15749;DHT22;7976;52.526;13.326;2022-07-23T03:21:43;18.20;99.90
15749;DHT22;7976;52.526;13.326;2022-07-23T03:24:11;18.20;99.90
15749;DHT22;7976;52.526;13.326;2022-07-23T03:26:38;18.20;99.90
15749;DHT22;7976;52.526;13.326;2022-07-23T03:29:05;18.10;99.90
15749;DHT22;7976;52.526;13.326;2022-07-23T03:31:32;18.00;99.90
15749;DHT22;7976;52.526;13.326;2022-07-23T03:33:59;17.90;99.90
15749;DHT22;7976;52.526;13.326;2022-07-23T03:36:26;17.90;99.90
15749;DHT22;7976;52.526;13.326;2022-07-23T03:38:56;17.90;99.90
15749;DHT22;7976;52.526;13.326;2022-07-23T03:41:24;17.90;99.90
15749;DHT22;7976;52.526;13.326;2022-07-23T03:43:50;18.10;99.90
15749;DHT22;7976;52.526;13.326;2022-07-23T03:46:17;18.10;99.90
15749;DHT22;7976;52.526;13.326;2022-07-23T03:48:44;18.10;99.90
15749;DHT22;7976;52.526;13.326;2022-07-23T03:51:11;18.20;99.90
15749;DHT22;7976;52.526;13.326;2022-07-23T03:53:37;18.10;99.90
15749;DHT22;7976;52.526;13.326;2022-07-23T03:56:06;18.10;99.90
15749;DHT22;7976;52.526;13.326;2022-07-23T03:58:33;18.20;99.90
15749;DHT22;7976;52.526;13.326;2022-07-23T04:01:00;18.30;99.90
15749;DHT22;7976;52.526;13.326;2022-07-23T04:03:27;18.20;99.90
15749;DHT22;7976;52.526;13.326;2022-07-23T04:05:54;18.20;99.90
15749;DHT22;7976;52.526;13.326;2022-07-23T04:08:21;18.10;99.90
15749;DHT22;7976;52.526;13.326;2022-07-23T04:10:50;18.10;99.90
15749;DHT22;7976;52.526;13.326;2022-07-23T04:13:19;18.10;99.90
15749;DHT22;7976;52.526;13.326;2022-07-23T04:15:46;18.10;99.90
15749;DHT22;7976;52.526;13.326;2022-07-23T04:18:15;18.00;99.90
15749;DHT22;7976;52.526;13.326;2022-07-23T04:20:51;18.00;99.90
15749;DHT22;7976;52.526;13.326;2022-07-23T04:23:19;17.90;99.90
15749;DHT22;7976;52.526;13.326;2022-07-23T04:25:46;17.90;99.90
15749;DHT22;7976;52.526;13.326;2022-07-23T04:28:13;17.90;99.90
15749;DHT22;7976;52.526;13.326;2022-07-23T04:30:42;18.00;99.90
15749;DHT22;7976;52.526;13.326;2022-07-23T04:33:10;17.90;99.90
15749;DHT22;7976;52.526;13.326;2022-07-23T04:35:38;17.60;99.90
15749;DHT22;7976;52.526;13.326;2022-07-23T04:38:13;17.00;99.90
15749;DHT22;7976;52.526;13.326;2022-07-23T04:40:40;16.60;99.90
15749;DHT22;7976;52.526;13.326;2022-07-23T04:43:07;16.40;99.90
15749;DHT22;7976;52.526;13.326;2022-07-23T04:45:41;16.20;99.90
15749;DHT22;7976;52.526;13.326;2022-07-23T04:48:08;16.10;99.90
15749;DHT22;7976;52.526;13.326;2022-07-23T04:50:35;16.00;99.90
15749;DHT22;7976;52.526;13.326;2022-07-23T04:53:04;15.90;99.90
15749;DHT22;7976;52.526;13.326;2022-07-23T04:55:31;15.70;99.90
15749;DHT22;7976;52.526;13.326;2022-07-23T04:57:58;15.50;99.90
15749;DHT22;7976;52.526;13.326;2022-07-23T05:00:24;15.40;99.90
15749;DHT22;7976;52.526;13.326;2022-07-23T05:02:52;15.30;99.90
15749;DHT22;7976;52.526;13.326;2022-07-23T05:05:19;15.30;99.90
15749;DHT22;7976;52.526;13.326;2022-07-23T05:07:46;15.20;99.90
15749;DHT22;7976;52.526;13.326;2022-07-23T05:10:13;15.20;99.90
15749;DHT22;7976;52.526;13.326;2022-07-23T05:12:40;15.10;99.90
15749;DHT22;7976;52.526;13.326;2022-07-23T05:15:07;15.10;99.90
15749;DHT22;7976;52.526;13.326;2022-07-23T05:17:34;15.10;99.90
15749;DHT22;7976;52.526;13.326;2022-07-23T05:20:07;15.20;99.90
15749;DHT22;7976;52.526;13.326;2022-07-23T05:22:34;15.20;99.90
15749;DHT22;7976;52.526;13.326;2022-07-23T05:25:01;15.20;99.90
15749;DHT22;7976;52.526;13.326;2022-07-23T05:27:28;15.20;99.90
15749;DHT22;7976;52.526;13.326;2022-07-23T05:29:55;15.20;99.90
15749;DHT22;7976;52.526;13.326;2022-07-23T05:32:22;15.20;99.90
15749;DHT22;7976;52.526;13.326;2022-07-23T05:34:57;15.20;99.90
15749;DHT22;7976;52.526;13.326;2022-07-23T05:37:25;15.20;99.90
15749;DHT22;7976;52.526;13.326;2022-07-23T05:39:52;15.20;99.90
15749;DHT22;7976;52.526;13.326;2022-07-23T05:42:19;15.20;99.90
15749;DHT22;7976;52.526;13.326;2022-07-23T05:44:46;15.10;99.90
15749;DHT22;7976;52.526;13.326;2022-07-23T05:47:13;15.20;99.90
15749;DHT22;7976;52.526;13.326;2022-07-23T05:49:40;15.20;99.90
15749;DHT22;7976;52.526;13.326;2022-07-23T05:52:25;15.10;99.90
15749;DHT22;7976;52.526;13.326;2022-07-23T05:55:24;15.20;99.90
15749;DHT22;7976;52.526;13.326;2022-07-23T05:57:54;15.40;99.90
15749;DHT22;7976;52.526;13.326;2022-07-23T06:00:21;15.50;99.90
15749;DHT22;7976;52.526;13.326;2022-07-23T06:02:48;15.60;99.90
15749;DHT22;7976;52.526;13.326;2022-07-23T06:05:16;15.70;99.90
15749;DHT22;7976;52.526;13.326;2022-07-23T06:07:45;15.70;99.90
15749;DHT22;7976;52.526;13.326;2022-07-23T06:10:14;15.70;99.90
15749;DHT22;7976;52.526;13.326;2022-07-23T06:12:41;15.80;99.90
15749;DHT22;7976;52.526;13.326;2022-07-23T06:15:09;15.70;99.90
15749;DHT22;7976;52.526;13.326;2022-07-23T06:17:36;15.80;99.90
15749;DHT22;7976;52.526;13.326;2022-07-23T06:20:05;15.90;99.90
15749;DHT22;7976;52.526;13.326;2022-07-23T06:22:36;15.80;99.90
15749;DHT22;7976;52.526;13.326;2022-07-23T06:25:06;15.70;99.90
15749;DHT22;7976;52.526;13.326;2022-07-23T06:27:34;15.50;99.90
15749;DHT22;7976;52.526;13.326;2022-07-23T06:30:01;15.50;99.90
15749;DHT22;7976;52.526;13.326;2022-07-23T06:32:27;15.50;99.90
15749;DHT22;7976;52.526;13.326;2022-07-23T06:34:55;15.60;99.90
15749;DHT22;7976;52.526;13.326;2022-07-23T06:37:22;15.70;99.90
15749;DHT22;7976;52.526;13.326;2022-07-23T06:39:48;15.70;99.90
15749;DHT22;7976;52.526;13.326;2022-07-23T06:42:17;15.60;99.90
15749;DHT22;7976;52.526;13.326;2022-07-23T06:44:44;15.60;99.90
15749;DHT22;7976;52.526;13.326;2022-07-23T06:47:15;15.60;99.90
15749;DHT22;7976;52.526;13.326;2022-07-23T06:49:42;15.70;99.90
15749;DHT22;7976;52.526;13.326;2022-07-23T06:52:09;15.80;99.90
15749;DHT22;7976;52.526;13.326;2022-07-23T06:54:36;15.90;99.90
15749;DHT22;7976;52.526;13.326;2022-07-23T06:57:03;15.80;99.90
15749;DHT22;7976;52.526;13.326;2022-07-23T06:59:31;15.90;99.90
15749;DHT22;7976;52.526;13.326;2022-07-23T07:02:02;15.90;99.90
15749;DHT22;7976;52.526;13.326;2022-07-23T07:04:29;16.00;99.90
15749;DHT22;7976;52.526;13.326;2022-07-23T07:06:57;16.10;99.90
15749;DHT22;7976;52.526;13.326;2022-07-23T07:09:24;16.10;99.90
15749;DHT22;7976;52.526;13.326;2022-07-23T07:11:51;16.10;99.90
15749;DHT22;7976;52.526;13.326;2022-07-23T07:14:18;16.20;99.90
15749;DHT22;7976;52.526;13.326;2022-07-23T07:16:46;16.20;99.90
15749;DHT22;7976;52.526;13.326;2022-07-23T07:19:13;16.30;99.90
15749;DHT22;7976;52.526;13.326;2022-07-23T07:21:40;16.40;99.90
15749;DHT22;7976;52.526;13.326;2022-07-23T07:24:07;16.50;99.90
15749;DHT22;7976;52.526;13.326;2022-07-23T07:26:34;16.60;99.90
15749;DHT22;7976;52.526;13.326;2022-07-23T07:29:01;16.60;99.90
15749;DHT22;7976;52.526;13.326;2022-07-23T07:31:28;16.60;99.90
15749;DHT22;7976;52.526;13.326;2022-07-23T07:33:56;16.60;99.90
15749;DHT22;7976;52.526;13.326;2022-07-23T07:36:24;16.60;99.90
15749;DHT22;7976;52.526;13.326;2022-07-23T07:38:51;16.70;99.90
15749;DHT22;7976;52.526;13.326;2022-07-23T07:41:18;16.70;99.90
15749;DHT22;7976;52.526;13.326;2022-07-23T07:43:48;16.80;99.90
15749;DHT22;7976;52.526;13.326;2022-07-23T07:46:15;16.80;99.90
15749;DHT22;7976;52.526;13.326;2022-07-23T07:48:42;16.90;99.90
15749;DHT22;7976;52.526;13.326;2022-07-23T07:51:10;16.90;99.90
15749;DHT22;7976;52.526;13.326;2022-07-23T07:53:37;16.90;99.90
15749;DHT22;7976;52.526;13.326;2022-07-23T07:56:04;16.90;99.90
15749;DHT22;7976;52.526;13.326;2022-07-23T07:58:31;17.00;99.90
15749;DHT22;7976;52.526;13.326;2022-07-23T08:00:58;17.10;99.90
15749;DHT22;7976;52.526;13.326;2022-07-23T08:03:26;17.20;99.90
15749;DHT22;7976;52.526;13.326;2022-07-23T08:05:53;17.30;99.90
15749;DHT22;7976;52.526;13.326;2022-07-23T08:08:21;17.40;99.90
15749;DHT22;7976;52.526;13.326;2022-07-23T08:10:48;17.50;99.90
15749;DHT22;7976;52.526;13.326;2022-07-23T08:13:15;17.70;99.90
15749;DHT22;7976;52.526;13.326;2022-07-23T08:15:43;17.80;99.90
15749;DHT22;7976;52.526;13.326;2022-07-23T08:18:10;17.90;99.90
15749;DHT22;7976;52.526;13.326;2022-07-23T08:20:38;18.00;99.90
15749;DHT22;7976;52.526;13.326;2022-07-23T08:23:07;18.10;99.90
15749;DHT22;7976;52.526;13.326;2022-07-23T08:25:37;18.10;99.90
15749;DHT22;7976;52.526;13.326;2022-07-23T08:28:07;18.20;99.90
15749;DHT22;7976;52.526;13.326;2022-07-23T08:30:36;18.40;99.90
15749;DHT22;7976;52.526;13.326;2022-07-23T08:33:06;18.50;99.90
15749;DHT22;7976;52.526;13.326;2022-07-23T08:35:38;18.60;99.90
15749;DHT22;7976;52.526;13.326;2022-07-23T08:38:08;18.80;99.90
15749;DHT22;7976;52.526;13.326;2022-07-23T08:40:39;18.80;99.90
15749;DHT22;7976;52.526;13.326;2022-07-23T08:43:08;18.80;99.90
15749;DHT22;7976;52.526;13.326;2022-07-23T08:45:37;18.80;99.90
15749;DHT22;7976;52.526;13.326;2022-07-23T08:48:08;18.80;99.90
15749;DHT22;7976;52.526;13.326;2022-07-23T08:50:42;18.90;99.90
15749;DHT22;7976;52.526;13.326;2022-07-23T08:53:10;18.90;99.90
15749;DHT22;7976;52.526;13.326;2022-07-23T08:55:39;18.80;99.90
15749;DHT22;7976;52.526;13.326;2022-07-23T08:58:06;18.90;99.90
15749;DHT22;7976;52.526;13.326;2022-07-23T09:00:33;19.00;99.90
15749;DHT22;7976;52.526;13.326;2022-07-23T09:03:00;19.00;99.90
15749;DHT22;7976;52.526;13.326;2022-07-23T09:05:26;19.10;99.90
15749;DHT22;7976;52.526;13.326;2022-07-23T09:08:11;19.20;99.90
15749;DHT22;7976;52.526;13.326;2022-07-23T09:10:52;19.30;99.90
15749;DHT22;7976;52.526;13.326;2022-07-23T09:13:28;19.30;99.90
15749;DHT22;7976;52.526;13.326;2022-07-23T09:16:03;19.30;99.90
15749;DHT22;7976;52.526;13.326;2022-07-23T09:18:39;19.50;99.90
15749;DHT22;7976;52.526;13.326;2022-07-23T09:21:17;19.50;99.90
15749;DHT22;7976;52.526;13.326;2022-07-23T09:23:53;19.60;99.90
15749;DHT22;7976;52.526;13.326;2022-07-23T09:26:29;19.60;99.90
15749;DHT22;7976;52.526;13.326;2022-07-23T09:29:07;19.70;99.90
15749;DHT22;7976;52.526;13.326;2022-07-23T09:31:47;19.80;99.90
15749;DHT22;7976;52.526;13.326;2022-07-23T09:34:19;19.80;99.90
15749;DHT22;7976;52.526;13.326;2022-07-23T09:36:47;20.10;99.90
15749;DHT22;7976;52.526;13.326;2022-07-23T09:39:21;20.30;99.90
15749;DHT22;7976;52.526;13.326;2022-07-23T09:41:53;20.50;99.90
15749;DHT22;7976;52.526;13.326;2022-07-23T09:44:21;20.70;99.90
15749;DHT22;7976;52.526;13.326;2022-07-23T09:46:50;20.80;99.90
15749;DHT22;7976;52.526;13.326;2022-07-23T09:49:23;20.70;99.90
15749;DHT22;7976;52.526;13.326;2022-07-23T09:51:52;20.70;99.90
15749;DHT22;7976;52.526;13.326;2022-07-23T09:54:30;20.70;99.90
15749;DHT22;7976;52.526;13.326;2022-07-23T09:57:03;20.70;99.90
15749;DHT22;7976;52.526;13.326;2022-07-23T09:59:34;20.70;99.90
15749;DHT22;7976;52.526;13.326;2022-07-23T10:02:04;20.80;99.90
15749;DHT22;7976;52.526;13.326;2022-07-23T10:04:43;21.00;99.90
15749;DHT22;7976;52.526;13.326;2022-07-23T10:07:17;21.10;99.90
15749;DHT22;7976;52.526;13.326;2022-07-23T10:10:08;21.10;99.90
15749;DHT22;7976;52.526;13.326;2022-07-23T10:12:56;21.20;99.90
15749;DHT22;7976;52.526;13.326;2022-07-23T10:15:50;21.10;99.90
15749;DHT22;7976;52.526;13.326;2022-07-23T10:18:17;21.00;99.90
15749;DHT22;7976;52.526;13.326;2022-07-23T10:20:47;20.90;99.90
15749;DHT22;7976;52.526;13.326;2022-07-23T10:23:19;20.90;99.90
15749;DHT22;7976;52.526;13.326;2022-07-23T10:25:58;20.90;99.90
15749;DHT22;7976;52.526;13.326;2022-07-23T10:28:56;21.00;99.90
15749;DHT22;7976;52.526;13.326;2022-07-23T10:31:41;20.90;99.90
15749;DHT22;7976;52.526;13.326;2022-07-23T10:34:21;20.80;99.90
15749;DHT22;7976;52.526;13.326;2022-07-23T10:36:57;20.80;99.90
15749;DHT22;7976;52.526;13.326;2022-07-23T10:39:32;20.70;99.90
15749;DHT22;7976;52.526;13.326;2022-07-23T10:42:08;20.70;99.90
15749;DHT22;7976;52.526;13.326;2022-07-23T10:44:41;20.90;99.90
15749;DHT22;7976;52.526;13.326;2022-07-23T10:47:11;21.10;99.90
15749;DHT22;7976;52.526;13.326;2022-07-23T10:50:18;21.20;99.90
15749;DHT22;7976;52.526;13.326;2022-07-23T10:53:10;21.40;99.90
15749;DHT22;7976;52.526;13.326;2022-07-23T10:55:49;21.50;99.90
15749;DHT22;7976;52.526;13.326;2022-07-23T10:58:23;21.80;99.90
15749;DHT22;7976;52.526;13.326;2022-07-23T11:01:35;22.00;99.90
15749;DHT22;7976;52.526;13.326;2022-07-23T11:04:05;22.10;99.90
15749;DHT22;7976;52.526;13.326;2022-07-23T11:07:07;22.30;99.90
15749;DHT22;7976;52.526;13.326;2022-07-23T11:09:41;22.50;99.90
15749;DHT22;7976;52.526;13.326;2022-07-23T11:12:31;22.60;99.90
15749;DHT22;7976;52.526;13.326;2022-07-23T11:15:02;22.60;99.90
15749;DHT22;7976;52.526;13.326;2022-07-23T11:17:35;22.70;99.90
15749;DHT22;7976;52.526;13.326;2022-07-23T11:20:20;22.80;99.90
15749;DHT22;7976;52.526;13.326;2022-07-23T11:22:50;23.00;99.90
15749;DHT22;7976;52.526;13.326;2022-07-23T11:25:31;23.00;99.90
15749;DHT22;7976;52.526;13.326;2022-07-23T11:28:13;22.90;99.90
15749;DHT22;7976;52.526;13.326;2022-07-23T11:30:44;22.80;99.90
15749;DHT22;7976;52.526;13.326;2022-07-23T11:33:22;22.70;99.90
15749;DHT22;7976;52.526;13.326;2022-07-23T11:36:00;22.60;99.90
15749;DHT22;7976;52.526;13.326;2022-07-23T11:38:31;22.60;99.90
15749;DHT22;7976;52.526;13.326;2022-07-23T11:40:59;22.60;99.90
15749;DHT22;7976;52.526;13.326;2022-07-23T11:43:26;22.60;99.90
15749;DHT22;7976;52.526;13.326;2022-07-23T11:45:56;22.60;99.90
15749;DHT22;7976;52.526;13.326;2022-07-23T11:48:29;22.60;99.90
15749;DHT22;7976;52.526;13.326;2022-07-23T11:50:57;22.60;99.90
15749;DHT22;7976;52.526;13.326;2022-07-23T11:53:25;22.70;99.90
15749;DHT22;7976;52.526;13.326;2022-07-23T11:55:54;22.90;99.90
15749;DHT22;7976;52.526;13.326;2022-07-23T11:58:28;23.10;99.90
15749;DHT22;7976;52.526;13.326;2022-07-23T12:00:55;23.30;99.90
15749;DHT22;7976;52.526;13.326;2022-07-23T12:03:22;23.50;99.90
15749;DHT22;7976;52.526;13.326;2022-07-23T12:05:56;23.60;99.90
15749;DHT22;7976;52.526;13.326;2022-07-23T12:08:23;23.60;99.90
15749;DHT22;7976;52.526;13.326;2022-07-23T12:10:50;23.50;99.90
15749;DHT22;7976;52.526;13.326;2022-07-23T12:13:20;23.50;99.90
15749;DHT22;7976;52.526;13.326;2022-07-23T12:15:49;23.50;99.90
15749;DHT22;7976;52.526;13.326;2022-07-23T12:18:20;23.60;99.90
15749;DHT22;7976;52.526;13.326;2022-07-23T12:20:52;23.60;99.90
15749;DHT22;7976;52.526;13.326;2022-07-23T12:23:23;23.70;99.90
15749;DHT22;7976;52.526;13.326;2022-07-23T12:25:52;23.70;99.90
15749;DHT22;7976;52.526;13.326;2022-07-23T12:28:21;23.70;99.90
15749;DHT22;7976;52.526;13.326;2022-07-23T12:30:54;23.70;99.90
15749;DHT22;7976;52.526;13.326;2022-07-23T12:33:25;23.70;99.90
15749;DHT22;7976;52.526;13.326;2022-07-23T12:35:55;23.80;99.90
15749;DHT22;7976;52.526;13.326;2022-07-23T12:38:25;23.80;99.90
15749;DHT22;7976;52.526;13.326;2022-07-23T12:40:54;23.90;99.90
15749;DHT22;7976;52.526;13.326;2022-07-23T12:43:24;23.90;99.90
15749;DHT22;7976;52.526;13.326;2022-07-23T12:45:54;24.00;99.90
15749;DHT22;7976;52.526;13.326;2022-07-23T12:48:24;24.10;99.90
15749;DHT22;7976;52.526;13.326;2022-07-23T12:50:55;24.00;99.90
15749;DHT22;7976;52.526;13.326;2022-07-23T12:53:26;24.00;99.90
15749;DHT22;7976;52.526;13.326;2022-07-23T12:56:04;24.00;99.90
15749;DHT22;7976;52.526;13.326;2022-07-23T12:58:45;23.90;99.90
15749;DHT22;7976;52.526;13.326;2022-07-23T13:01:27;23.90;99.90
15749;DHT22;7976;52.526;13.326;2022-07-23T13:03:58;24.00;99.90
15749;DHT22;7976;52.526;13.326;2022-07-23T13:06:30;24.10;99.90
15749;DHT22;7976;52.526;13.326;2022-07-23T13:09:00;24.10;99.90
15749;DHT22;7976;52.526;13.326;2022-07-23T13:11:28;24.00;99.90
15749;DHT22;7976;52.526;13.326;2022-07-23T13:13:55;23.90;99.90
15749;DHT22;7976;52.526;13.326;2022-07-23T13:16:22;23.80;99.90
15749;DHT22;7976;52.526;13.326;2022-07-23T13:18:49;23.80;99.90
15749;DHT22;7976;52.526;13.326;2022-07-23T13:21:16;23.90;99.90
15749;DHT22;7976;52.526;13.326;2022-07-23T13:23:44;24.00;99.90
15749;DHT22;7976;52.526;13.326;2022-07-23T13:26:11;24.10;99.90
15749;DHT22;7976;52.526;13.326;2022-07-23T13:28:38;24.10;99.90
15749;DHT22;7976;52.526;13.326;2022-07-23T13:31:05;24.00;99.90
15749;DHT22;7976;52.526;13.326;2022-07-23T13:33:33;23.90;99.90
15749;DHT22;7976;52.526;13.326;2022-07-23T13:36:00;23.70;99.90
15749;DHT22;7976;52.526;13.326;2022-07-23T13:38:27;23.60;99.90
15749;DHT22;7976;52.526;13.326;2022-07-23T13:40:56;23.50;99.90
15749;DHT22;7976;52.526;13.326;2022-07-23T13:43:24;23.50;99.90
15749;DHT22;7976;52.526;13.326;2022-07-23T13:45:52;23.50;99.90
15749;DHT22;7976;52.526;13.326;2022-07-23T13:48:19;23.50;99.90
15749;DHT22;7976;52.526;13.326;2022-07-23T13:50:47;23.50;99.90
15749;DHT22;7976;52.526;13.326;2022-07-23T13:53:16;23.50;99.90
15749;DHT22;7976;52.526;13.326;2022-07-23T13:55:45;23.50;99.90
15749;DHT22;7976;52.526;13.326;2022-07-23T13:58:14;23.50;99.90
15749;DHT22;7976;52.526;13.326;2022-07-23T14:00:45;23.70;99.90
15749;DHT22;7976;52.526;13.326;2022-07-23T14:03:14;23.70;99.90
15749;DHT22;7976;52.526;13.326;2022-07-23T14:05:41;23.70;99.90
15749;DHT22;7976;52.526;13.326;2022-07-23T14:08:10;23.70;99.90
15749;DHT22;7976;52.526;13.326;2022-07-23T14:10:37;23.80;99.90
15749;DHT22;7976;52.526;13.326;2022-07-23T14:13:04;23.80;99.90
15749;DHT22;7976;52.526;13.326;2022-07-23T14:15:32;23.80;99.90
15749;DHT22;7976;52.526;13.326;2022-07-23T14:17:59;23.90;99.90
15749;DHT22;7976;52.526;13.326;2022-07-23T14:20:26;24.00;99.90
15749;DHT22;7976;52.526;13.326;2022-07-23T14:22:53;24.00;99.90
15749;DHT22;7976;52.526;13.326;2022-07-23T14:25:21;24.00;99.90
15749;DHT22;7976;52.526;13.326;2022-07-23T14:27:48;23.90;99.90
15749;DHT22;7976;52.526;13.326;2022-07-23T14:30:15;23.90;99.90
15749;DHT22;7976;52.526;13.326;2022-07-23T14:32:43;23.90;99.90
15749;DHT22;7976;52.526;13.326;2022-07-23T14:35:10;23.80;99.90
15749;DHT22;7976;52.526;13.326;2022-07-23T14:37:39;23.70;99.90
15749;DHT22;7976;52.526;13.326;2022-07-23T14:40:06;23.70;99.90
15749;DHT22;7976;52.526;13.326;2022-07-23T14:42:33;23.60;99.90
15749;DHT22;7976;52.526;13.326;2022-07-23T14:45:00;23.60;99.90
15749;DHT22;7976;52.526;13.326;2022-07-23T14:47:27;23.60;99.90
15749;DHT22;7976;52.526;13.326;2022-07-23T14:49:55;23.70;99.90
15749;DHT22;7976;52.526;13.326;2022-07-23T14:52:22;23.70;99.90
15749;DHT22;7976;52.526;13.326;2022-07-23T14:54:49;23.70;99.90
15749;DHT22;7976;52.526;13.326;2022-07-23T14:57:16;23.80;99.90
15749;DHT22;7976;52.526;13.326;2022-07-23T14:59:43;23.90;99.90
15749;DHT22;7976;52.526;13.326;2022-07-23T15:02:09;24.10;99.90
15749;DHT22;7976;52.526;13.326;2022-07-23T15:04:36;24.20;99.90
15749;DHT22;7976;52.526;13.326;2022-07-23T15:07:05;24.20;99.90
15749;DHT22;7976;52.526;13.326;2022-07-23T15:09:32;24.10;99.90
15749;DHT22;7976;52.526;13.326;2022-07-23T15:11:58;23.90;99.90
15749;DHT22;7976;52.526;13.326;2022-07-23T15:14:25;24.00;99.90
15749;DHT22;7976;52.526;13.326;2022-07-23T15:16:52;24.00;99.90
15749;DHT22;7976;52.526;13.326;2022-07-23T15:19:19;24.10;99.90
15749;DHT22;7976;52.526;13.326;2022-07-23T15:21:46;24.20;99.90
15749;DHT22;7976;52.526;13.326;2022-07-23T15:24:15;24.20;99.90
15749;DHT22;7976;52.526;13.326;2022-07-23T15:26:41;24.30;99.90
15749;DHT22;7976;52.526;13.326;2022-07-23T15:29:08;24.30;99.90
15749;DHT22;7976;52.526;13.326;2022-07-23T15:31:35;24.30;99.90
15749;DHT22;7976;52.526;13.326;2022-07-23T15:34:03;24.40;99.90
15749;DHT22;7976;52.526;13.326;2022-07-23T15:36:29;24.50;99.90
15749;DHT22;7976;52.526;13.326;2022-07-23T15:38:56;24.50;99.90
15749;DHT22;7976;52.526;13.326;2022-07-23T15:41:24;24.40;99.90
15749;DHT22;7976;52.526;13.326;2022-07-23T15:43:51;24.30;99.90
15749;DHT22;7976;52.526;13.326;2022-07-23T15:46:20;24.20;99.90